Buchanan, New York
Current Conditions -  °F | °C
As of 6:56 AM on Monday 22 Dec 2014 (Local Time) from KHPN Reporting Station
Overcast Overcast  
Wind Chill: 30°   Ceiling: 1000
Heat Index: 34°   Visibility: 10mi
Dew Point: 31°   Wind: 5mph
Humidity: 89%   Direction: 40°NE
Pressure: 30.29"   Gusts: NA
Location:  41.26°N, 73.94°W
Report Text: KHPN 221156Z 04004KT 10SM OVC010 01/M01 A3029 RMK AO2 SLP266 60000 T00111006 10017 20006 58002
Loading
Personal Weather Stations






























Interactive Weather Map New forecast layout! Learn more

10-Day Weather Forecast

Advertisements
Track Severe Weather on mobile